Terminal Aerodrome Forecast
Issued by NWS Mt. Holly, NJ

Home | Current Version | Previous Version | Text Only | Print | Product List | Glossary On
Versions: 1 2 3 4 5 6 7 8 9 10 11 12
000
FTAK31 PANC 180531
TAFABE
TAF
PABE 180531Z 1806/1906 02006KT P6SM VCSH SCT040 OVC070
     FM180900 02006KT P6SM SCT070 BKN120
     FM182000 13007KT P6SM VCSH SCT025 OVC040=

USA.gov is the U.S. government's official web portal to all federal, state and local government web resources and services.